createdAt,value
2023-03-11T00:00:55.165Z,7.70
2023-03-11T00:03:24.936Z,8.93
2023-03-11T00:08:21.887Z,7.22
2023-03-11T00:10:51.023Z,7.72
2023-03-11T00:13:17.852Z,8.68
2023-03-11T00:15:47.332Z,7.97
2023-03-11T00:18:14.151Z,7.28
2023-03-11T00:20:42.420Z,7.30
2023-03-11T00:23:10.091Z,8.18
2023-03-11T00:25:37.400Z,8.70
2023-03-11T00:28:05.111Z,8.02
2023-03-11T00:30:31.910Z,7.82
2023-03-11T00:32:59.580Z,8.82
2023-03-11T00:35:28.613Z,8.48
2023-03-11T00:37:57.381Z,8.30
2023-03-11T00:40:24.932Z,8.48
2023-03-11T00:42:51.763Z,8.82
2023-03-11T00:45:18.778Z,8.30
2023-03-11T00:47:45.582Z,8.15
2023-03-11T00:50:18.154Z,8.40
2023-03-11T00:52:46.022Z,7.78
2023-03-11T00:55:18.280Z,9.43
2023-03-11T00:57:45.126Z,8.32
2023-03-11T01:00:16.287Z,9.88
2023-03-11T01:02:43.104Z,8.52
2023-03-11T01:05:10.137Z,8.52
2023-03-11T01:07:37.575Z,7.72
2023-03-11T01:10:06.077Z,8.07
2023-03-11T01:12:32.893Z,7.40
2023-03-11T01:14:59.764Z,7.35
2023-03-11T01:17:26.546Z,7.22
2023-03-11T01:19:53.294Z,8.25
2023-03-11T01:22:20.278Z,8.73
2023-03-11T01:24:47.060Z,7.18
2023-03-11T01:27:13.836Z,7.18
2023-03-11T01:29:40.627Z,7.80
2023-03-11T01:32:07.655Z,7.30
2023-03-11T01:34:36.234Z,8.27
2023-03-11T01:37:03.616Z,8.82
2023-03-11T01:39:30.495Z,9.93
2023-03-11T01:41:57.413Z,8.13
2023-03-11T01:44:24.214Z,8.82
2023-03-11T01:46:53.923Z,8.80
2023-03-11T01:51:51.143Z,7.10
2023-03-11T01:54:23.026Z,7.60
2023-03-11T01:56:50.006Z,6.90
2023-03-11T01:59:19.720Z,6.97
2023-03-11T02:01:50.171Z,7.13
2023-03-11T02:04:16.987Z,7.18
2023-03-11T02:06:43.732Z,6.72
2023-03-11T02:09:10.518Z,7.22
2023-03-11T02:11:37.267Z,7.47
2023-03-11T02:14:06.415Z,7.35
2023-03-11T02:16:33.263Z,6.97
2023-03-11T02:19:02.558Z,8.40
2023-03-11T02:21:30.385Z,7.63
2023-03-11T02:24:21.158Z,8.10
2023-03-11T02:26:58.413Z,6.60
2023-03-11T02:29:25.445Z,8.07
2023-03-11T02:31:52.286Z,8.40
2023-03-11T02:34:28.254Z,6.97
2023-03-11T02:36:54.985Z,7.72
2023-03-11T02:39:32.281Z,7.60
2023-03-11T02:41:59.065Z,8.82
2023-03-11T02:44:25.857Z,7.28
2023-03-11T02:46:53.215Z,7.97
2023-03-11T02:49:20.527Z,7.25
2023-03-11T02:51:47.316Z,7.38
2023-03-11T02:54:14.071Z,8.63
2023-03-11T02:56:40.804Z,6.95
2023-03-11T02:59:07.533Z,6.70
2023-03-11T03:01:34.265Z,8.27
2023-03-11T03:04:01.072Z,6.75
2023-03-11T03:06:28.709Z,7.68
2023-03-11T03:08:55.638Z,8.68
2023-03-11T03:11:22.363Z,7.32
2023-03-11T03:13:49.113Z,7.47
2023-03-11T03:16:15.867Z,7.07
2023-03-11T03:18:42.669Z,7.10
2023-03-11T03:21:09.407Z,8.00
2023-03-11T03:23:38.006Z,7.35
2023-03-11T03:26:05.863Z,7.22
2023-03-11T03:28:32.661Z,8.30
2023-03-11T03:31:06.640Z,6.78
2023-03-11T03:33:33.488Z,7.38
2023-03-11T03:36:00.267Z,7.75
2023-03-11T03:38:27.077Z,6.75
2023-03-11T03:40:54.158Z,6.00
2023-03-11T03:43:20.876Z,6.80
2023-03-11T03:45:58.818Z,6.43
2023-03-11T03:48:25.730Z,6.95
2023-03-11T03:50:52.555Z,6.55
2023-03-11T03:53:19.365Z,8.30
2023-03-11T03:55:46.267Z,6.15
2023-03-11T03:58:13.194Z,8.68
2023-03-11T04:00:40.022Z,7.18
2023-03-11T04:03:06.838Z,8.00
2023-03-11T04:05:33.684Z,6.90
2023-03-11T04:08:00.721Z,7.18
2023-03-11T04:10:27.746Z,7.38
2023-03-11T04:12:54.490Z,6.93
2023-03-11T04:15:21.261Z,5.68
2023-03-11T04:17:48.010Z,7.43
2023-03-11T04:20:14.770Z,7.40
2023-03-11T04:22:41.543Z,7.80
2023-03-11T04:25:08.730Z,6.82
2023-03-11T04:27:35.660Z,6.43
2023-03-11T04:30:02.466Z,7.72
2023-03-11T04:32:29.300Z,6.57
2023-03-11T04:34:56.082Z,6.82
2023-03-11T04:37:22.780Z,7.03
2023-03-11T04:39:52.342Z,7.13
2023-03-11T04:42:19.278Z,5.75
2023-03-11T04:44:46.139Z,6.60
2023-03-11T04:47:12.916Z,6.00
2023-03-11T04:49:39.701Z,6.88
2023-03-11T04:52:06.678Z,6.65
2023-03-11T04:54:33.549Z,7.18
2023-03-11T04:57:00.285Z,7.05
2023-03-11T04:59:27.091Z,7.15
2023-03-11T05:01:53.941Z,6.65
2023-03-11T05:04:20.832Z,7.65
2023-03-11T05:06:48.836Z,7.93
2023-03-11T05:09:15.579Z,6.65
2023-03-11T05:11:42.361Z,6.97
2023-03-11T05:14:09.085Z,6.22
2023-03-11T05:16:35.840Z,6.03
2023-03-11T05:19:22.564Z,6.47
2023-03-11T05:21:49.318Z,6.32
2023-03-11T05:24:16.059Z,5.50
2023-03-11T05:26:42.781Z,6.07
2023-03-11T05:29:09.493Z,5.72
2023-03-11T05:31:36.803Z,6.85
2023-03-11T05:34:03.623Z,6.03
2023-03-11T05:36:30.417Z,7.15
2023-03-11T05:38:57.217Z,6.40
2023-03-11T05:41:24.046Z,6.32
2023-03-11T05:43:50.931Z,6.25
2023-03-11T05:46:17.968Z,6.38
2023-03-11T05:48:44.702Z,6.53
2023-03-11T05:51:11.576Z,6.78
2023-03-11T05:53:38.424Z,6.13
2023-03-11T05:56:05.666Z,5.88
2023-03-11T05:58:32.674Z,6.32
2023-03-11T06:01:00.188Z,6.68
2023-03-11T06:03:26.867Z,5.55
2023-03-11T06:05:53.704Z,5.72
2023-03-11T06:08:20.699Z,5.43
2023-03-11T06:10:48.985Z,5.93
2023-03-11T06:13:15.946Z,6.00
2023-03-11T06:15:43.951Z,5.85
2023-03-11T06:18:10.889Z,5.85
2023-03-11T06:20:37.974Z,7.00
2023-03-11T06:23:05.297Z,6.00
2023-03-11T06:25:32.049Z,7.28
2023-03-11T06:27:58.781Z,5.88
2023-03-11T06:30:25.550Z,5.97
2023-03-11T06:32:53.042Z,5.72
2023-03-11T06:35:19.783Z,5.20
2023-03-11T06:37:46.478Z,4.93
2023-03-11T06:40:13.799Z,4.88
2023-03-11T06:42:40.484Z,7.13
2023-03-11T06:45:07.814Z,5.13
2023-03-11T06:47:34.549Z,6.05
2023-03-11T06:50:06.526Z,5.20
2023-03-11T06:52:33.335Z,5.50
2023-03-11T06:55:00.023Z,5.72
2023-03-11T06:57:27.640Z,5.57
2023-03-11T06:59:54.390Z,5.43
2023-03-11T07:02:21.094Z,4.60
2023-03-11T07:04:50.674Z,5.03
2023-03-11T07:07:17.562Z,5.47
2023-03-11T07:09:44.268Z,5.50
2023-03-11T07:12:10.964Z,6.65
2023-03-11T07:14:37.691Z,5.32
2023-03-11T07:17:04.631Z,3.72
2023-03-11T07:19:31.421Z,3.75
2023-03-11T07:21:58.814Z,4.28
2023-03-11T07:24:25.529Z,3.95
2023-03-11T07:26:52.241Z,3.75
2023-03-11T07:29:20.249Z,3.90
2023-03-11T07:31:47.803Z,3.30
2023-03-11T07:34:15.331Z,3.88
2023-03-11T07:36:42.457Z,3.70
2023-03-11T07:39:13.115Z,4.65
2023-03-11T07:41:39.894Z,4.15
2023-03-11T07:44:08.076Z,6.45
2023-03-11T07:46:36.132Z,4.18
2023-03-11T07:49:03.819Z,5.68
2023-03-11T07:51:32.410Z,4.93
2023-03-11T07:53:59.525Z,5.40
2023-03-11T07:56:27.954Z,4.60
2023-03-11T07:58:54.725Z,4.93
2023-03-11T08:01:23.136Z,4.60
2023-03-11T08:03:51.134Z,3.95
2023-03-11T08:06:19.750Z,4.05
2023-03-11T08:08:46.666Z,3.55
2023-03-11T08:11:13.549Z,3.20
2023-03-11T08:13:41.343Z,3.17
2023-03-11T08:16:08.815Z,2.80
2023-03-11T08:18:35.652Z,2.78
2023-03-11T08:21:09.716Z,3.50
2023-03-11T08:23:36.592Z,3.08
2023-03-11T08:26:04.976Z,3.40
2023-03-11T08:28:31.712Z,3.17
2023-03-11T08:30:58.559Z,3.00
2023-03-11T08:33:25.259Z,2.90
2023-03-11T08:35:52.183Z,3.60
2023-03-11T08:38:19.050Z,4.18
2023-03-11T08:40:45.788Z,3.22
2023-03-11T08:43:13.594Z,3.33
2023-03-11T08:45:41.565Z,2.83
2023-03-11T08:48:09.795Z,3.35
2023-03-11T08:50:47.407Z,2.97
2023-03-11T08:53:19.975Z,3.65
2023-03-11T08:55:46.761Z,3.25
2023-03-11T08:58:13.670Z,2.97
2023-03-11T09:00:40.385Z,2.60
2023-03-11T09:03:07.203Z,2.72
2023-03-11T09:05:33.960Z,2.42
2023-03-11T09:08:00.735Z,2.60
2023-03-11T09:10:27.495Z,3.20
2023-03-11T09:12:54.252Z,2.42
2023-03-11T09:15:21.052Z,3.42
2023-03-11T09:17:47.801Z,2.60
2023-03-11T09:20:14.964Z,2.33
2023-03-11T09:22:42.192Z,3.72
2023-03-11T09:25:10.353Z,2.60
2023-03-11T09:27:37.098Z,2.20
2023-03-11T09:30:04.398Z,2.40
2023-03-11T09:32:31.215Z,2.50
2023-03-11T09:34:58.037Z,3.22
2023-03-11T09:37:24.815Z,2.38
2023-03-11T09:39:51.560Z,2.28
2023-03-11T09:42:29.518Z,2.08
2023-03-11T09:45:28.699Z,2.10
2023-03-11T09:48:17.723Z,2.30
2023-03-11T09:50:48.866Z,2.88
2023-03-11T09:53:27.349Z,1.85
2023-03-11T09:56:00.748Z,1.73
2023-03-11T09:58:55.336Z,2.10
2023-03-11T10:01:29.366Z,2.15
2023-03-11T10:03:57.681Z,2.83
2023-03-11T10:06:25.956Z,2.15
2023-03-11T10:09:19.068Z,1.90
2023-03-11T10:12:24.260Z,1.60
2023-03-11T10:15:00.717Z,1.20
2023-03-11T10:17:36.523Z,1.70
2023-03-11T10:20:28.137Z,1.55
2023-03-11T10:23:08.004Z,1.70
2023-03-11T10:25:40.851Z,1.60
2023-03-11T10:28:16.643Z,1.88
2023-03-11T10:30:53.606Z,1.80
2023-03-11T10:33:40.178Z,1.60
2023-03-11T10:36:09.975Z,1.88
2023-03-11T10:38:49.033Z,2.47
2023-03-11T10:41:34.870Z,2.25
2023-03-11T10:44:07.536Z,2.47
2023-03-11T10:46:34.402Z,1.67
2023-03-11T10:49:01.192Z,1.45
2023-03-11T10:51:36.711Z,1.80
2023-03-11T10:54:03.840Z,1.73
2023-03-11T10:56:34.958Z,1.92
2023-03-11T10:59:02.666Z,1.90
2023-03-11T11:01:29.782Z,2.10
2023-03-11T11:03:58.438Z,3.20
2023-03-11T11:06:27.612Z,1.60
2023-03-11T11:09:20.547Z,2.22
2023-03-11T11:12:03.340Z,2.00
2023-03-11T11:14:50.308Z,2.40
2023-03-11T11:17:32.630Z,2.30
2023-03-11T11:19:59.842Z,2.58
2023-03-11T11:22:27.272Z,1.85
2023-03-11T11:24:55.028Z,2.00
2023-03-11T11:27:26.446Z,1.75
2023-03-11T11:30:08.836Z,2.67
2023-03-11T11:32:36.377Z,2.03
2023-03-11T11:35:05.333Z,2.22
2023-03-11T11:37:40.268Z,2.40
2023-03-11T11:40:11.281Z,2.00
2023-03-11T11:42:39.345Z,2.28
2023-03-11T11:45:19.290Z,2.40
2023-03-11T11:47:50.768Z,2.17
2023-03-11T11:50:30.301Z,3.70
2023-03-11T11:53:18.332Z,2.08
2023-03-11T11:55:48.549Z,2.38
2023-03-11T11:58:15.432Z,2.00
2023-03-11T12:00:48.155Z,2.47
2023-03-11T12:03:40.003Z,2.58
2023-03-11T12:06:25.494Z,2.50
2023-03-11T12:09:08.443Z,1.80
2023-03-11T12:11:52.660Z,2.03
2023-03-11T12:14:36.252Z,1.75
2023-03-11T12:17:04.368Z,2.40
2023-03-11T12:19:40.142Z,1.67
2023-03-11T12:22:45.805Z,2.47
2023-03-11T12:25:50.134Z,1.40
2023-03-11T12:28:29.996Z,1.65
2023-03-11T12:30:59.857Z,1.85
2023-03-11T12:33:40.931Z,1.80
2023-03-11T12:36:17.437Z,2.70
2023-03-11T12:38:46.804Z,3.60
2023-03-11T12:41:16.743Z,1.88
2023-03-11T12:43:43.477Z,1.77
2023-03-11T12:46:14.523Z,1.80
2023-03-11T12:48:49.845Z,1.77
2023-03-11T12:51:34.669Z,1.70
2023-03-11T12:54:21.416Z,1.88
2023-03-11T12:57:23.340Z,1.40
2023-03-11T13:00:18.790Z,1.63
2023-03-11T13:03:11.604Z,1.83
2023-03-11T13:05:58.562Z,1.60
2023-03-11T13:08:38.493Z,2.40
2023-03-11T13:11:45.543Z,1.67
2023-03-11T13:14:16.295Z,1.50
2023-03-11T13:16:44.199Z,1.35
2023-03-11T13:19:26.238Z,1.80
2023-03-11T13:21:54.236Z,1.67
2023-03-11T13:24:22.980Z,1.50
2023-03-11T13:27:15.917Z,1.40
2023-03-11T13:30:01.641Z,1.73
2023-03-11T13:32:59.448Z,1.40
2023-03-11T13:35:52.588Z,2.25
2023-03-11T13:38:35.018Z,1.42
2023-03-11T13:41:03.203Z,1.60
2023-03-11T13:43:30.106Z,1.58
2023-03-11T13:46:05.620Z,1.60
2023-03-11T13:48:37.661Z,1.73
2023-03-11T13:51:06.564Z,1.50
2023-03-11T13:53:39.851Z,1.80
2023-03-11T13:56:12.404Z,1.63
2023-03-11T13:58:39.244Z,1.50
2023-03-11T14:01:06.736Z,2.90
2023-03-11T14:03:37.160Z,2.08
2023-03-11T14:06:09.403Z,2.22
2023-03-11T14:08:36.942Z,1.98
2023-03-11T14:11:10.718Z,1.60
2023-03-11T14:13:45.293Z,1.83
2023-03-11T14:16:20.296Z,1.63
2023-03-11T14:18:48.623Z,1.83
2023-03-11T14:21:16.920Z,1.50
2023-03-11T14:23:45.451Z,1.77
2023-03-11T14:26:17.925Z,1.48
2023-03-11T14:28:49.718Z,2.38
2023-03-11T14:31:34.230Z,1.88
2023-03-11T14:34:04.591Z,2.35
2023-03-11T14:36:42.495Z,1.58
2023-03-11T14:39:31.291Z,1.77
2023-03-11T14:42:26.883Z,2.13
2023-03-11T14:45:10.041Z,1.45
2023-03-11T14:47:44.744Z,1.73
2023-03-11T14:50:19.507Z,1.60
2023-03-11T14:52:53.054Z,1.85
2023-03-11T14:55:25.156Z,1.58
2023-03-11T14:57:57.292Z,2.58
2023-03-11T15:00:33.791Z,1.38
2023-03-11T15:03:02.894Z,1.95
2023-03-11T15:05:38.869Z,1.80
2023-03-11T15:08:07.526Z,1.38
2023-03-11T15:10:34.911Z,1.55
2023-03-11T15:13:10.957Z,2.83
2023-03-11T15:15:37.688Z,1.80
2023-03-11T15:18:15.337Z,1.80
2023-03-11T15:20:42.266Z,2.15
2023-03-11T15:23:19.823Z,1.60
2023-03-11T15:25:48.774Z,1.75
2023-03-11T15:28:27.321Z,1.45
2023-03-11T15:31:17.045Z,1.58
2023-03-11T15:33:44.121Z,1.30
2023-03-11T15:36:29.389Z,1.70
2023-03-11T15:39:14.299Z,1.70
2023-03-11T15:41:42.430Z,1.60
2023-03-11T15:44:41.607Z,1.48
2023-03-11T15:47:18.929Z,1.70
2023-03-11T15:49:46.177Z,1.25
2023-03-11T15:52:13.109Z,1.75
2023-03-11T15:54:40.043Z,1.42
2023-03-11T15:57:08.564Z,1.63
2023-03-11T15:59:35.506Z,2.40
2023-03-11T16:02:02.442Z,2.03
2023-03-11T16:04:29.257Z,1.63
2023-03-11T16:07:07.477Z,2.03
2023-03-11T16:09:35.326Z,1.92
2023-03-11T16:12:02.813Z,1.73
2023-03-11T16:14:29.720Z,1.85
2023-03-11T16:16:56.665Z,1.75
2023-03-11T16:19:23.470Z,1.42
2023-03-11T16:21:50.477Z,1.52
2023-03-11T16:24:21.416Z,1.65
2023-03-11T16:26:49.350Z,1.90
2023-03-11T16:29:19.627Z,1.35
2023-03-11T16:31:47.251Z,1.60
2023-03-11T16:34:14.011Z,1.70
2023-03-11T16:36:41.009Z,2.05
2023-03-11T16:39:08.070Z,2.25
2023-03-11T16:41:42.373Z,1.85
2023-03-11T16:44:09.964Z,1.58
2023-03-11T16:46:36.945Z,1.73
2023-03-11T16:49:03.982Z,2.03
2023-03-11T16:51:31.163Z,1.88
2023-03-11T16:53:57.912Z,1.75
2023-03-11T16:56:24.710Z,2.00
2023-03-11T16:58:51.526Z,1.60
2023-03-11T17:01:19.213Z,1.95
2023-03-11T17:03:48.697Z,1.60
2023-03-11T17:06:16.700Z,1.75
2023-03-11T17:08:48.876Z,1.67
2023-03-11T17:11:21.249Z,1.55
2023-03-11T17:13:48.088Z,1.60
2023-03-11T17:16:15.412Z,1.38
2023-03-11T17:18:42.415Z,3.05
2023-03-11T17:21:10.580Z,1.70
2023-03-11T17:23:37.390Z,2.58
2023-03-11T17:26:08.450Z,1.38
2023-03-11T17:28:35.686Z,1.65
2023-03-11T17:31:02.693Z,1.63
2023-03-11T17:33:29.750Z,1.50
2023-03-11T17:36:06.295Z,1.50
2023-03-11T17:38:33.123Z,2.05
2023-03-11T17:41:00.067Z,1.70
2023-03-11T17:43:26.861Z,1.90
2023-03-11T17:45:53.967Z,1.98
2023-03-11T17:48:21.322Z,1.80
2023-03-11T17:50:48.095Z,1.70
2023-03-11T17:53:14.858Z,1.60
2023-03-11T17:55:41.692Z,1.90
2023-03-11T17:58:08.898Z,1.90
2023-03-11T18:00:35.665Z,1.70
2023-03-11T18:03:02.440Z,1.55
2023-03-11T18:05:29.212Z,1.70
2023-03-11T18:07:56.053Z,2.15
2023-03-11T18:10:22.873Z,2.20
2023-03-11T18:12:49.898Z,2.72
2023-03-11T18:15:19.364Z,2.80
2023-03-11T18:17:47.709Z,2.15
2023-03-11T18:20:14.836Z,2.20
2023-03-11T18:22:46.701Z,2.55
2023-03-11T18:25:14.007Z,2.38
2023-03-11T18:27:40.959Z,3.17
2023-03-11T18:30:08.440Z,2.60
2023-03-11T18:32:35.339Z,3.70
2023-03-11T18:35:02.160Z,2.90
2023-03-11T18:37:28.943Z,3.08
2023-03-11T18:39:55.923Z,3.10
2023-03-11T18:42:22.730Z,3.00
2023-03-11T18:44:49.503Z,3.50
2023-03-11T18:47:16.270Z,3.70
2023-03-11T18:49:43.554Z,3.63
2023-03-11T18:52:10.829Z,3.45
2023-03-11T18:54:37.636Z,4.45
2023-03-11T18:57:04.435Z,4.00
2023-03-11T18:59:31.200Z,3.97
2023-03-11T19:01:57.952Z,4.60
2023-03-11T19:04:24.845Z,4.00
2023-03-11T19:06:51.621Z,5.05
2023-03-11T19:09:18.507Z,4.35
2023-03-11T19:11:45.699Z,4.72
2023-03-11T19:14:12.576Z,4.55
2023-03-11T19:16:39.308Z,4.60
2023-03-11T19:19:06.089Z,5.53
2023-03-11T19:21:32.807Z,4.78
2023-03-11T19:24:00.273Z,5.40
2023-03-11T19:26:43.273Z,5.28
2023-03-11T19:29:10.905Z,4.88
2023-03-11T19:31:37.741Z,5.55
2023-03-11T19:34:04.624Z,4.72
2023-03-11T19:36:31.487Z,5.72
2023-03-11T19:38:58.225Z,6.43
2023-03-11T19:41:25.016Z,6.43
2023-03-11T19:43:52.394Z,6.55
2023-03-11T19:46:20.572Z,6.20
2023-03-11T19:48:47.388Z,6.68
2023-03-11T19:51:14.266Z,6.20
2023-03-11T19:53:41.768Z,5.93
2023-03-11T19:56:08.831Z,5.55
2023-03-11T19:58:35.743Z,5.82
2023-03-11T20:01:02.498Z,5.15
2023-03-11T20:03:29.509Z,5.40
2023-03-11T20:05:58.058Z,6.57
2023-03-11T20:08:25.258Z,5.68
2023-03-11T20:10:52.341Z,6.43
2023-03-11T20:13:23.039Z,5.70
2023-03-11T20:15:50.069Z,6.38
2023-03-11T20:18:17.963Z,6.15
2023-03-11T20:20:45.043Z,5.60
2023-03-11T20:23:12.080Z,5.97
2023-03-11T20:25:39.711Z,7.00
2023-03-11T20:28:06.693Z,6.22
2023-03-11T20:30:33.609Z,6.45
2023-03-11T20:33:00.471Z,6.18
2023-03-11T20:35:27.473Z,7.00
2023-03-11T20:37:54.465Z,6.00
2023-03-11T20:40:21.441Z,5.85
2023-03-11T20:42:48.177Z,6.55
2023-03-11T20:45:16.221Z,5.70
2023-03-11T20:47:44.324Z,6.63
2023-03-11T20:50:12.372Z,6.13
2023-03-11T20:52:39.273Z,7.25
2023-03-11T20:55:08.309Z,6.00
2023-03-11T20:57:35.348Z,6.53
2023-03-11T21:00:02.142Z,6.80
2023-03-11T21:02:30.949Z,6.97
2023-03-11T21:04:57.827Z,7.10
2023-03-11T21:07:24.688Z,7.25
2023-03-11T21:09:54.659Z,7.35
2023-03-11T21:12:21.914Z,8.85
2023-03-11T21:14:48.748Z,8.40
2023-03-11T21:17:17.423Z,7.03
2023-03-11T21:19:44.616Z,7.82
2023-03-11T21:22:11.515Z,7.63
2023-03-11T21:24:38.344Z,8.55
2023-03-11T21:27:05.298Z,8.70
2023-03-11T21:29:32.135Z,8.98
2023-03-11T21:31:59.338Z,8.05
2023-03-11T21:34:26.316Z,8.18
2023-03-11T21:36:53.165Z,7.82
2023-03-11T21:39:21.792Z,8.77
2023-03-11T21:41:48.817Z,7.60
2023-03-11T21:44:15.612Z,8.57
2023-03-11T21:46:42.599Z,9.60
2023-03-11T21:49:09.443Z,8.70
2023-03-11T21:51:36.247Z,8.32
2023-03-11T21:54:05.372Z,8.27
2023-03-11T21:56:32.341Z,8.85
2023-03-11T21:58:59.312Z,9.30
2023-03-11T22:01:26.322Z,10.35
2023-03-11T22:03:53.574Z,9.82
2023-03-11T22:06:20.436Z,9.52
2023-03-11T22:08:47.258Z,10.23
2023-03-11T22:11:17.772Z,10.00
2023-03-11T22:13:48.845Z,9.65
2023-03-11T22:16:15.761Z,10.07
2023-03-11T22:18:42.732Z,9.35
2023-03-11T22:21:10.838Z,9.48
2023-03-11T22:23:38.396Z,9.30
2023-03-11T22:26:05.226Z,9.00
2023-03-11T22:28:32.267Z,9.77
2023-03-11T22:30:59.056Z,8.93
2023-03-11T22:33:25.922Z,9.93
2023-03-11T22:35:56.865Z,9.68
2023-03-11T22:38:25.031Z,9.63
2023-03-11T22:40:52.090Z,9.63
2023-03-11T22:43:18.844Z,8.95
2023-03-11T22:45:45.910Z,9.98
2023-03-11T22:48:12.678Z,8.93
2023-03-11T22:50:44.621Z,8.75
2023-03-11T22:53:12.119Z,8.43
2023-03-11T22:55:40.446Z,9.30
2023-03-11T22:58:07.331Z,9.00
2023-03-11T23:00:34.522Z,8.60
2023-03-11T23:03:01.722Z,8.60
2023-03-11T23:05:28.498Z,9.00
2023-03-11T23:07:55.292Z,8.48
2023-03-11T23:10:22.183Z,8.88
2023-03-11T23:12:49.155Z,8.52
2023-03-11T23:15:17.705Z,9.50
2023-03-11T23:17:44.759Z,8.30
2023-03-11T23:20:15.222Z,8.10
2023-03-11T23:22:42.327Z,8.40
2023-03-11T23:25:13.850Z,7.82
2023-03-11T23:27:42.578Z,7.95
2023-03-11T23:30:14.065Z,7.47
2023-03-11T23:32:44.053Z,8.18
2023-03-11T23:35:11.178Z,7.45
2023-03-11T23:37:38.331Z,6.32
2023-03-11T23:40:05.676Z,6.20
2023-03-11T23:42:34.692Z,6.65
2023-03-11T23:45:01.660Z,5.93
2023-03-11T23:47:28.780Z,4.78
2023-03-11T23:49:55.513Z,5.75
2023-03-11T23:52:22.394Z,5.25
2023-03-11T23:54:49.129Z,5.10
2023-03-11T23:57:15.896Z,5.20
2023-03-11T23:59:42.778Z,6.13
